Terminal Aerodrome Forecast
Issued by NWS Amarillo, TX

Home | Current Version | Previous Version | Text Only | Print | Product List | Glossary On
Versions: 1 2 3 4 5 6 7 8 9 10 11 12 13 14 15 16 17 18 19 20 21 22 23
000
FTUS44 KAMA 271700
TAFGUY
TAF
KGUY 271720Z 2718/2818 14014KT 1 1/2SM -SN OVC015
     FM272000 15010KT P6SM OVC026
     FM280300 16011KT 3SM -SN BR OVC012
     FM281700 18015KT 6SM BR BKN025=

USA.gov is the U.S. government's official web portal to all federal, state and local government web resources and services.